Time;durP1;ratioP1;P1;durP2;ratioP2;P2;SDS_P1;SDS_P2;PMS_P1;PMS_P2;Temp;Humidity;BMP_temperature;BMP_pressure;BME280_temperature;BME280_humidity;BME280_pressure;Samples;Min_cycle;Max_cycle;Signal;HPM_P1;HPM_P2
2022/11/19 00:00:44;;;;;;;;;;;-1.30;99.90;;;;;;5023698;28;19917;-54
2022/11/19 00:03:13;;;;;;;;;;;-1.30;99.90;;;;;;5013798;28;19914;-57
2022/11/19 00:05:40;;;;;;;;;;;-1.30;99.90;;;;;;5012478;28;20300;-54
2022/11/19 00:08:05;;;;;;;;;;;-1.40;99.90;;;;;;5017916;28;20291;-54
2022/11/19 00:10:32;;;;;;;;;;;-1.40;99.90;;;;;;5023450;28;19928;-57
2022/11/19 00:12:58;;;;;;;;;;;-1.50;99.90;;;;;;5014981;28;19948;-56
2022/11/19 00:15:23;;;;;;;;;;;-1.50;99.90;;;;;;5017629;28;19917;-55
2022/11/19 00:17:49;;;;;;;;;;;-1.60;99.90;;;;;;5021208;28;19940;-57
2022/11/19 00:20:16;;;;;;;;;;;-1.70;99.90;;;;;;5013210;28;19914;-58
2022/11/19 00:22:42;;;;;;;;;;;-1.70;99.90;;;;;;5022811;28;19917;-52
2022/11/19 00:25:08;;;;;;;;;;;-1.70;99.90;;;;;;5024672;28;19917;-56
2022/11/19 00:27:33;;;;;;;;;;;-1.80;99.90;;;;;;5016392;28;19928;-57
2022/11/19 00:29:59;;;;;;;;;;;-1.80;99.90;;;;;;5028519;28;20263;-56
2022/11/19 00:32:24;;;;;;;;;;;-1.80;99.90;;;;;;5023317;28;19913;-57
2022/11/19 00:34:50;;;;;;;;;;;-1.80;99.90;;;;;;5012498;28;19918;-56
2022/11/19 00:37:15;;;;;;;;;;;-1.90;99.90;;;;;;5011786;28;20024;-54
2022/11/19 00:39:41;;;;;;;;;;;-1.80;99.90;;;;;;5014824;28;19925;-50
2022/11/19 00:42:06;;;;;;;;;;;-1.90;99.90;;;;;;5011391;28;19913;-56
2022/11/19 00:44:32;;;;;;;;;;;-1.90;99.90;;;;;;5015147;28;19921;-57
2022/11/19 00:46:57;;;;;;;;;;;-1.90;99.90;;;;;;5017645;28;19917;-57
2022/11/19 00:49:23;;;;;;;;;;;-1.90;99.90;;;;;;5015916;28;19913;-54
2022/11/19 00:51:48;;;;;;;;;;;-2.00;99.90;;;;;;5012617;28;19963;-51
2022/11/19 00:54:14;;;;;;;;;;;-2.00;99.90;;;;;;5011369;28;20055;-54
2022/11/19 00:56:39;;;;;;;;;;;-2.00;99.90;;;;;;5013453;28;20538;-56
2022/11/19 00:59:05;;;;;;;;;;;-2.10;99.90;;;;;;5023297;28;19913;-56
2022/11/19 01:01:30;;;;;;;;;;;-2.20;99.90;;;;;;5017958;28;20587;-57
2022/11/19 01:03:56;;;;;;;;;;;-2.20;99.90;;;;;;5014287;28;20009;-48
2022/11/19 01:06:22;;;;;;;;;;;-2.30;99.90;;;;;;5017996;28;19917;-56
2022/11/19 01:08:48;;;;;;;;;;;-2.30;99.90;;;;;;5013786;28;19917;-55
2022/11/19 01:11:15;;;;;;;;;;;-2.30;99.90;;;;;;5018102;28;19956;-57
2022/11/19 01:13:41;;;;;;;;;;;-2.40;99.90;;;;;;5022445;28;19924;-57
2022/11/19 01:16:14;;;;;;;;;;;-2.50;99.90;;;;;;5030748;28;19909;-57
2022/11/19 01:18:40;;;;;;;;;;;-2.50;99.90;;;;;;5019672;28;20277;-57
2022/11/19 01:21:06;;;;;;;;;;;-2.50;99.90;;;;;;5025299;28;19920;-54
2022/11/19 01:23:32;;;;;;;;;;;-2.60;99.90;;;;;;5022509;28;19921;-53
2022/11/19 01:25:58;;;;;;;;;;;-2.60;99.90;;;;;;5029582;28;20368;-57
2022/11/19 01:28:24;;;;;;;;;;;-2.60;99.90;;;;;;5025953;28;20323;-56
2022/11/19 01:30:49;;;;;;;;;;;-2.70;99.90;;;;;;5010910;28;19913;-58
2022/11/19 01:33:15;;;;;;;;;;;-2.70;99.90;;;;;;5025577;28;20050;-56
2022/11/19 01:35:40;;;;;;;;;;;-2.70;99.90;;;;;;5018964;28;20109;-54
2022/11/19 01:38:06;;;;;;;;;;;-2.80;99.90;;;;;;5011350;28;19979;-53
2022/11/19 01:40:32;;;;;;;;;;;-2.90;99.90;;;;;;5010431;28;20545;-53
2022/11/19 01:42:57;;;;;;;;;;;-2.90;99.90;;;;;;5012482;28;19969;-55
2022/11/19 01:45:29;;;;;;;;;;;-3.00;99.90;;;;;;5012510;28;19920;-57
2022/11/19 01:47:56;;;;;;;;;;;-3.00;99.90;;;;;;5015152;28;19913;-54
2022/11/19 01:50:22;;;;;;;;;;;-3.00;99.90;;;;;;5010212;28;19921;-53
2022/11/19 01:52:48;;;;;;;;;;;-3.00;99.90;;;;;;5018664;28;20340;-55
2022/11/19 01:55:15;;;;;;;;;;;-3.00;99.90;;;;;;5009873;28;19941;-55
2022/11/19 01:57:40;;;;;;;;;;;-3.00;99.90;;;;;;5012860;28;19914;-58
2022/11/19 02:00:06;;;;;;;;;;;-3.00;99.90;;;;;;5022927;28;19914;-57
2022/11/19 02:02:32;;;;;;;;;;;-3.00;99.90;;;;;;5019640;28;20591;-56
2022/11/19 02:04:59;;;;;;;;;;;-3.00;99.90;;;;;;5012689;28;19918;-58
2022/11/19 02:07:28;;;;;;;;;;;-3.10;99.90;;;;;;5021684;28;19913;-55
2022/11/19 02:09:58;;;;;;;;;;;-3.10;99.90;;;;;;5025666;28;19920;-58
2022/11/19 02:12:46;;;;;;;;;;;-3.10;99.90;;;;;;5026584;28;19971;-56
2022/11/19 02:15:21;;;;;;;;;;;-3.10;99.90;;;;;;5014260;28;20013;-57
2022/11/19 02:17:55;;;;;;;;;;;-3.20;99.90;;;;;;5027043;28;19913;-52
2022/11/19 02:20:33;;;;;;;;;;;-3.20;99.90;;;;;;5020242;28;20379;-54
2022/11/19 02:23:17;;;;;;;;;;;-3.20;99.90;;;;;;5026212;28;19916;-56
2022/11/19 02:25:57;;;;;;;;;;;-3.20;99.90;;;;;;5008146;28;19924;-59
2022/11/19 02:28:32;;;;;;;;;;;-3.20;99.90;;;;;;5010679;28;19975;-55
2022/11/19 02:31:09;;;;;;;;;;;-3.20;99.90;;;;;;5010082;28;20443;-54
2022/11/19 02:33:40;;;;;;;;;;;-3.30;99.90;;;;;;5019300;28;20000;-56
2022/11/19 02:36:06;;;;;;;;;;;-3.30;99.90;;;;;;5024045;28;19959;-57
2022/11/19 02:38:43;;;;;;;;;;;-3.30;99.90;;;;;;5027012;28;19925;-52
2022/11/19 02:41:32;;;;;;;;;;;-3.30;99.90;;;;;;5018388;28;19952;-56
2022/11/19 02:46:41;;;;;;;;;;;-3.30;99.90;;;;;;5014338;28;20379;-50
2022/11/19 02:49:07;;;;;;;;;;;-3.30;99.90;;;;;;5010565;28;19917;-57
2022/11/19 02:51:33;;;;;;;;;;;-3.30;99.90;;;;;;5014666;28;19913;-55
2022/11/19 02:53:59;;;;;;;;;;;-3.40;99.90;;;;;;5009425;28;20451;-56
2022/11/19 02:56:43;;;;;;;;;;;-3.40;99.90;;;;;;5019548;28;19914;-57
2022/11/19 03:04:36;;;;;;;;;;;-3.40;99.90;;;;;;5027167;28;20012;-53
2022/11/19 03:07:05;;;;;;;;;;;-3.50;99.90;;;;;;5010782;28;20279;-57
2022/11/19 03:09:32;;;;;;;;;;;-3.60;99.90;;;;;;5019416;28;19913;-51
2022/11/19 03:12:02;;;;;;;;;;;-3.70;99.90;;;;;;5022500;28;19930;-53
2022/11/19 03:17:30;;;;;;;;;;;-3.70;99.90;;;;;;5018045;28;19927;-54
2022/11/19 03:20:15;;;;;;;;;;;-3.70;99.90;;;;;;5013172;28;20392;-57
2022/11/19 03:22:49;;;;;;;;;;;-3.70;99.90;;;;;;5020998;28;20019;-55
2022/11/19 03:25:17;;;;;;;;;;;-3.70;99.90;;;;;;5021956;28;20415;-55
2022/11/19 03:27:50;;;;;;;;;;;-3.70;99.90;;;;;;5018877;28;19962;-58
2022/11/19 03:30:16;;;;;;;;;;;-3.70;99.90;;;;;;5017636;28;20309;-54
2022/11/19 03:32:51;;;;;;;;;;;-3.70;99.90;;;;;;5019419;28;19962;-52
2022/11/19 03:35:19;;;;;;;;;;;-3.70;99.90;;;;;;5019795;28;19909;-55
2022/11/19 03:37:48;;;;;;;;;;;-3.80;99.90;;;;;;5021298;28;19948;-57
2022/11/19 03:40:15;;;;;;;;;;;-3.80;99.90;;;;;;5024016;28;19924;-58
2022/11/19 03:42:42;;;;;;;;;;;-3.80;99.90;;;;;;5018095;28;20021;-57
2022/11/19 03:45:18;;;;;;;;;;;-3.80;99.90;;;;;;5018995;28;19917;-58
2022/11/19 03:47:45;;;;;;;;;;;-3.80;99.90;;;;;;5014594;28;19956;-55
2022/11/19 03:50:22;;;;;;;;;;;-3.90;99.90;;;;;;5012313;28;19921;-55
2022/11/19 03:52:48;;;;;;;;;;;-3.90;99.90;;;;;;5017006;28;19917;-56
2022/11/19 03:55:15;;;;;;;;;;;-3.90;99.90;;;;;;5012945;28;20372;-55
2022/11/19 03:57:41;;;;;;;;;;;-4.00;99.90;;;;;;5019758;28;19921;-56
2022/11/19 04:00:07;;;;;;;;;;;-4.00;99.90;;;;;;5017175;28;19914;-57
2022/11/19 04:02:32;;;;;;;;;;;-4.10;99.90;;;;;;5019930;28;19956;-57
2022/11/19 04:04:58;;;;;;;;;;;-4.10;99.90;;;;;;5016999;28;19956;-55
2022/11/19 04:07:23;;;;;;;;;;;-4.10;99.90;;;;;;5020983;28;20035;-50
2022/11/19 04:09:49;;;;;;;;;;;-4.10;99.90;;;;;;5015762;28;19913;-53
2022/11/19 04:12:19;;;;;;;;;;;-4.10;99.90;;;;;;5017968;28;19925;-54
2022/11/19 04:14:45;;;;;;;;;;;-4.20;99.90;;;;;;5014549;28;19918;-53
2022/11/19 04:17:10;;;;;;;;;;;-4.20;99.90;;;;;;5016130;28;19924;-54
2022/11/19 04:19:36;;;;;;;;;;;-4.20;99.90;;;;;;5012813;28;19920;-47
2022/11/19 04:22:02;;;;;;;;;;;-4.20;99.90;;;;;;5013028;28;19921;-57
2022/11/19 04:24:27;;;;;;;;;;;-4.20;99.90;;;;;;5011513;28;20000;-55
2022/11/19 04:26:53;;;;;;;;;;;-4.20;99.90;;;;;;5023723;28;19993;-55
2022/11/19 04:29:18;;;;;;;;;;;-4.20;99.90;;;;;;5016044;28;20040;-57
2022/11/19 04:31:44;;;;;;;;;;;-4.30;99.90;;;;;;5021953;28;20307;-56
2022/11/19 04:34:09;;;;;;;;;;;-4.30;99.90;;;;;;5023251;28;20399;-56
2022/11/19 04:36:35;;;;;;;;;;;-4.30;99.90;;;;;;5015568;28;20004;-53
2022/11/19 04:39:00;;;;;;;;;;;-4.30;99.90;;;;;;5010135;28;19913;-54
2022/11/19 04:41:26;;;;;;;;;;;-4.30;99.90;;;;;;5022290;28;20020;-54
2022/11/19 04:43:51;;;;;;;;;;;-4.30;99.90;;;;;;5028733;28;19921;-57
2022/11/19 04:46:17;;;;;;;;;;;-4.20;99.90;;;;;;5023021;28;19933;-52
2022/11/19 04:48:42;;;;;;;;;;;-4.20;99.90;;;;;;5020437;28;20015;-55
2022/11/19 04:51:08;;;;;;;;;;;-4.10;99.90;;;;;;5013795;28;19924;-55
2022/11/19 04:53:33;;;;;;;;;;;-4.10;99.90;;;;;;5010673;28;19944;-51
2022/11/19 04:55:59;;;;;;;;;;;-4.10;99.90;;;;;;5011436;28;19913;-55
2022/11/19 04:58:24;;;;;;;;;;;-4.20;99.90;;;;;;5013813;28;19988;-54
2022/11/19 05:00:50;;;;;;;;;;;-4.20;99.90;;;;;;5014302;28;19970;-55
2022/11/19 05:03:15;;;;;;;;;;;-4.20;99.90;;;;;;5013007;28;20036;-51
2022/11/19 05:05:41;;;;;;;;;;;-4.20;99.90;;;;;;5010056;28;19922;-52
2022/11/19 05:08:06;;;;;;;;;;;-4.20;99.90;;;;;;5011081;28;19932;-54
2022/11/19 05:10:32;;;;;;;;;;;-4.20;99.90;;;;;;5018842;28;19971;-56
2022/11/19 05:12:57;;;;;;;;;;;-4.20;99.90;;;;;;5014473;28;19975;-59
2022/11/19 05:15:23;;;;;;;;;;;-4.30;99.90;;;;;;5010413;28;19917;-53
2022/11/19 05:17:48;;;;;;;;;;;-4.30;99.90;;;;;;5021354;28;19941;-55
2022/11/19 05:20:14;;;;;;;;;;;-4.30;99.90;;;;;;5010650;28;19967;-54
2022/11/19 05:22:39;;;;;;;;;;;-4.40;99.90;;;;;;5011418;28;19959;-53
2022/11/19 05:25:05;;;;;;;;;;;-4.40;99.90;;;;;;5010619;28;19920;-55
2022/11/19 05:27:31;;;;;;;;;;;-4.50;99.90;;;;;;5016671;28;19966;-55
2022/11/19 05:29:56;;;;;;;;;;;-4.40;99.90;;;;;;5015194;28;20339;-51
2022/11/19 05:32:21;;;;;;;;;;;-4.50;99.90;;;;;;5020212;28;19971;-54
2022/11/19 05:34:47;;;;;;;;;;;-4.50;99.90;;;;;;5022278;28;19917;-56
2022/11/19 05:37:13;;;;;;;;;;;-4.50;99.90;;;;;;5016573;28;21664;-55
2022/11/19 05:39:38;;;;;;;;;;;-4.60;99.90;;;;;;5014886;28;20288;-54
2022/11/19 05:42:04;;;;;;;;;;;-4.60;99.90;;;;;;5011140;28;19956;-52
2022/11/19 05:44:29;;;;;;;;;;;-4.60;99.90;;;;;;5011670;28;19967;-54
2022/11/19 05:46:56;;;;;;;;;;;-4.60;99.90;;;;;;5026497;28;20003;-54
2022/11/19 05:49:22;;;;;;;;;;;-4.70;99.90;;;;;;5017279;28;19922;-57
2022/11/19 05:51:47;;;;;;;;;;;-4.70;99.90;;;;;;5014259;28;20353;-53
2022/11/19 05:54:13;;;;;;;;;;;-4.70;99.90;;;;;;5021756;28;19953;-56
2022/11/19 05:56:38;;;;;;;;;;;-4.70;99.90;;;;;;5012797;28;19917;-56
2022/11/19 05:59:04;;;;;;;;;;;-4.70;99.90;;;;;;5012166;28;20411;-55
2022/11/19 06:01:29;;;;;;;;;;;-4.70;99.90;;;;;;5009640;28;19925;-56
2022/11/19 06:03:55;;;;;;;;;;;-4.80;99.90;;;;;;5013640;28;19917;-55
2022/11/19 06:06:21;;;;;;;;;;;-4.70;99.90;;;;;;5011957;28;19917;-51
2022/11/19 06:08:47;;;;;;;;;;;-4.70;99.90;;;;;;5012911;28;20028;-55
2022/11/19 06:11:46;;;;;;;;;;;-4.70;99.90;;;;;;5008003;28;19925;-54
2022/11/19 06:13:58;;;;;;;;;;;-4.80;99.90;;;;;;5006724;28;20465;-54
2022/11/19 06:16:24;;;;;;;;;;;-4.80;99.90;;;;;;5015811;28;19921;-52
2022/11/19 06:18:50;;;;;;;;;;;-4.80;99.90;;;;;;5012591;28;19917;-53
2022/11/19 06:21:16;;;;;;;;;;;-4.80;99.90;;;;;;5013574;28;19928;-54
2022/11/19 06:23:41;;;;;;;;;;;-4.80;99.90;;;;;;5015213;28;19925;-55
2022/11/19 06:26:07;;;;;;;;;;;-4.80;99.90;;;;;;5012984;28;19913;-53
2022/11/19 06:28:33;;;;;;;;;;;-4.80;99.90;;;;;;5014151;28;19914;-54
2022/11/19 06:30:58;;;;;;;;;;;-4.80;99.90;;;;;;5016244;28;19924;-55
2022/11/19 06:33:24;;;;;;;;;;;-4.80;99.90;;;;;;5016224;28;19917;-57
2022/11/19 06:35:49;;;;;;;;;;;-4.70;99.90;;;;;;5015874;28;20439;-53
2022/11/19 06:38:15;;;;;;;;;;;-4.70;99.90;;;;;;5016677;28;19913;-53
2022/11/19 06:40:41;;;;;;;;;;;-4.70;99.90;;;;;;5008204;28;20263;-54
2022/11/19 06:43:07;;;;;;;;;;;-4.80;99.90;;;;;;5016570;28;19919;-58
2022/11/19 06:45:32;;;;;;;;;;;-4.80;99.90;;;;;;5016264;28;20327;-56
2022/11/19 06:47:57;;;;;;;;;;;-4.80;99.90;;;;;;5014109;28;19917;-51
2022/11/19 06:50:23;;;;;;;;;;;-4.80;99.90;;;;;;5012232;28;19960;-55
2022/11/19 06:52:48;;;;;;;;;;;-4.80;99.90;;;;;;5024089;28;20033;-56
2022/11/19 06:55:14;;;;;;;;;;;-4.70;99.90;;;;;;5014165;28;19921;-53
2022/11/19 06:57:39;;;;;;;;;;;-4.70;99.90;;;;;;5018646;28;19913;-55
2022/11/19 07:00:05;;;;;;;;;;;-4.80;99.90;;;;;;5012923;28;19952;-53
2022/11/19 07:02:31;;;;;;;;;;;-4.70;99.90;;;;;;5014642;28;19921;-53
2022/11/19 07:04:56;;;;;;;;;;;-4.70;99.90;;;;;;5013495;28;19914;-57
2022/11/19 07:07:22;;;;;;;;;;;-4.70;99.90;;;;;;5017507;28;19917;-56
2022/11/19 07:09:47;;;;;;;;;;;-4.70;99.90;;;;;;5019429;28;19917;-55
2022/11/19 07:12:13;;;;;;;;;;;-4.70;99.90;;;;;;5019267;28;19925;-55
2022/11/19 07:14:38;;;;;;;;;;;-4.70;99.90;;;;;;5015440;28;19924;-54
2022/11/19 07:17:04;;;;;;;;;;;-4.60;99.90;;;;;;5020273;28;19941;-56
2022/11/19 07:19:29;;;;;;;;;;;-4.50;99.90;;;;;;5015245;28;19916;-54
2022/11/19 07:21:55;;;;;;;;;;;-4.40;99.90;;;;;;5006281;28;19918;-54
2022/11/19 07:24:21;;;;;;;;;;;-4.40;99.90;;;;;;5011509;28;20043;-56
2022/11/19 07:26:46;;;;;;;;;;;-4.30;99.90;;;;;;5019729;28;20031;-56
2022/11/19 07:29:13;;;;;;;;;;;-4.20;99.90;;;;;;5017696;28;20574;-57
2022/11/19 07:31:38;;;;;;;;;;;-4.10;99.90;;;;;;5008797;28;19944;-56
2022/11/19 07:34:08;;;;;;;;;;;-4.00;99.90;;;;;;5017343;28;20534;-50
2022/11/19 07:36:33;;;;;;;;;;;-4.00;99.90;;;;;;5014136;28;20040;-55
2022/11/19 07:38:59;;;;;;;;;;;-3.80;99.90;;;;;;5012884;28;20001;-50
2022/11/19 07:44:08;;;;;;;;;;;-3.80;99.90;;;;;;5014640;28;19924;-54
2022/11/19 07:46:34;;;;;;;;;;;-3.80;99.90;;;;;;5014387;28;19913;-56
2022/11/19 07:49:00;;;;;;;;;;;-3.70;99.90;;;;;;5017866;28;19917;-54
2022/11/19 07:51:25;;;;;;;;;;;-3.70;99.90;;;;;;5021082;28;19921;-54
2022/11/19 07:53:51;;;;;;;;;;;-3.60;99.90;;;;;;5017710;28;19921;-54
2022/11/19 07:56:17;;;;;;;;;;;-3.50;99.90;;;;;;5013182;28;19917;-55
2022/11/19 07:58:43;;;;;;;;;;;-3.10;99.90;;;;;;5005742;28;19918;-59
2022/11/19 08:01:10;;;;;;;;;;;-2.60;99.90;;;;;;5015679;28;19921;-51
2022/11/19 08:03:36;;;;;;;;;;;-2.10;99.90;;;;;;5005823;28;19940;-51
2022/11/19 08:06:04;;;;;;;;;;;-1.50;99.90;;;;;;5003783;28;19921;-49
2022/11/19 08:08:31;;;;;;;;;;;-1.20;99.90;;;;;;5001960;28;19967;-47
2022/11/19 08:10:56;;;;;;;;;;;-0.60;99.90;;;;;;5012559;28;20245;-47
2022/11/19 08:13:22;;;;;;;;;;;-0.20;99.90;;;;;;5012695;28;19932;-47
2022/11/19 08:15:47;;;;;;;;;;;0.30;99.90;;;;;;5009926;28;20426;-47
2022/11/19 08:18:14;;;;;;;;;;;0.60;99.90;;;;;;5014460;28;20355;-49
2022/11/19 08:20:40;;;;;;;;;;;1.00;99.90;;;;;;5009763;28;19925;-48
2022/11/19 08:23:06;;;;;;;;;;;1.40;99.90;;;;;;5019113;28;19935;-50
2022/11/19 08:25:31;;;;;;;;;;;1.40;99.90;;;;;;5011465;28;20012;-51
2022/11/19 08:27:57;;;;;;;;;;;1.80;99.90;;;;;;5016412;28;19932;-48
2022/11/19 08:30:22;;;;;;;;;;;1.90;99.90;;;;;;5015153;28;19932;-54
2022/11/19 08:32:48;;;;;;;;;;;2.20;99.90;;;;;;5014842;28;19957;-47
2022/11/19 08:35:13;;;;;;;;;;;2.50;99.90;;;;;;5013134;28;20291;-52
2022/11/19 08:37:39;;;;;;;;;;;2.60;99.90;;;;;;5012092;28;19913;-55
2022/11/19 08:40:04;;;;;;;;;;;2.60;99.90;;;;;;5013638;28;20356;-56
2022/11/19 08:45:14;;;;;;;;;;;3.40;99.90;;;;;;5021864;28;19967;-57
2022/11/19 08:47:40;;;;;;;;;;;3.30;99.90;;;;;;5029794;28;19917;-57
2022/11/19 08:50:05;;;;;;;;;;;3.40;99.90;;;;;;5030965;28;19909;-59
2022/11/19 08:52:31;;;;;;;;;;;3.70;99.90;;;;;;5015524;28;19918;-58
2022/11/19 08:54:56;;;;;;;;;;;4.00;99.90;;;;;;5011462;28;20433;-59
2022/11/19 08:57:22;;;;;;;;;;;4.20;99.90;;;;;;5017358;28;20323;-56
2022/11/19 08:59:47;;;;;;;;;;;3.90;99.90;;;;;;5012326;28;19909;-55
2022/11/19 09:02:13;;;;;;;;;;;4.70;99.10;;;;;;5010821;28;20707;-57
2022/11/19 09:04:40;;;;;;;;;;;4.60;97.30;;;;;;5012628;28;19937;-55
2022/11/19 09:07:05;;;;;;;;;;;4.70;96.30;;;;;;5030006;28;19963;-56
2022/11/19 09:09:31;;;;;;;;;;;4.80;98.00;;;;;;5025687;28;19914;-57
2022/11/19 09:11:57;;;;;;;;;;;4.70;95.50;;;;;;5022385;28;19983;-56
2022/11/19 09:14:22;;;;;;;;;;;4.90;98.00;;;;;;5030284;28;19910;-57
2022/11/19 09:16:47;;;;;;;;;;;5.30;94.90;;;;;;5030359;28;19916;-54
2022/11/19 09:19:13;;;;;;;;;;;5.30;94.00;;;;;;5030950;28;19913;-58
2022/11/19 09:21:38;;;;;;;;;;;5.80;93.70;;;;;;5029175;28;20011;-58
2022/11/19 09:24:04;;;;;;;;;;;6.10;91.80;;;;;;5030243;28;19909;-55
2022/11/19 09:26:29;;;;;;;;;;;6.50;91.30;;;;;;5030221;28;20284;-57
2022/11/19 09:28:55;;;;;;;;;;;7.00;85.70;;;;;;5028917;28;20015;-56
2022/11/19 09:31:20;;;;;;;;;;;7.40;85.50;;;;;;5029353;28;19920;-53
2022/11/19 09:33:48;;;;;;;;;;;7.90;77.10;;;;;;5010472;28;19916;-55
2022/11/19 09:36:14;;;;;;;;;;;8.10;77.40;;;;;;5015757;28;20407;-59
2022/11/19 09:38:40;;;;;;;;;;;7.30;76.20;;;;;;5022158;28;19910;-56
2022/11/19 09:41:24;;;;;;;;;;;7.30;78.10;;;;;;5016897;28;19971;-57
2022/11/19 09:43:59;;;;;;;;;;;7.50;76.90;;;;;;5024362;28;19956;-58
2022/11/19 09:46:43;;;;;;;;;;;7.40;77.00;;;;;;5028195;28;20010;-57
2022/11/19 09:49:10;;;;;;;;;;;7.70;76.60;;;;;;5020997;28;20091;-58
2022/11/19 09:51:38;;;;;;;;;;;7.80;70.40;;;;;;5014022;28;19917;-58
2022/11/19 09:54:06;;;;;;;;;;;7.20;69.40;;;;;;5019533;28;19914;-58
2022/11/19 09:56:40;;;;;;;;;;;7.00;70.00;;;;;;5014070;28;19960;-56
2022/11/19 09:59:15;;;;;;;;;;;7.30;72.80;;;;;;5020982;28;19913;-57
2022/11/19 10:01:40;;;;;;;;;;;8.10;74.10;;;;;;5015780;28;19975;-57
2022/11/19 10:04:06;;;;;;;;;;;8.60;69.90;;;;;;5018813;28;20419;-55
2022/11/19 10:06:34;;;;;;;;;;;8.60;68.20;;;;;;5018271;28;20268;-59
2022/11/19 10:09:15;;;;;;;;;;;8.70;65.90;;;;;;5019757;28;20261;-56
2022/11/19 10:11:56;;;;;;;;;;;8.20;65.00;;;;;;5019089;28;19929;-58
2022/11/19 10:14:21;;;;;;;;;;;7.70;71.20;;;;;;5019116;28;20470;-57
2022/11/19 10:16:47;;;;;;;;;;;8.10;65.00;;;;;;5016122;28;19921;-58
2022/11/19 10:19:27;;;;;;;;;;;8.50;65.40;;;;;;5022321;28;20410;-58
2022/11/19 10:22:02;;;;;;;;;;;9.30;62.20;;;;;;5020198;28;19917;-56
2022/11/19 10:24:40;;;;;;;;;;;9.60;58.00;;;;;;5022841;28;19909;-57
2022/11/19 10:27:26;;;;;;;;;;;10.40;56.50;;;;;;5024764;28;19914;-49
2022/11/19 10:29:53;;;;;;;;;;;10.70;53.10;;;;;;5017600;28;20440;-57
2022/11/19 10:32:28;;;;;;;;;;;10.50;53.90;;;;;;5021972;28;19917;-57
2022/11/19 10:34:57;;;;;;;;;;;11.20;52.60;;;;;;5021298;28;20004;-57
2022/11/19 10:37:25;;;;;;;;;;;11.10;50.00;;;;;;5020946;28;19913;-57
2022/11/19 10:39:53;;;;;;;;;;;10.80;50.00;;;;;;5022410;28;19910;-58
2022/11/19 10:42:20;;;;;;;;;;;11.50;49.90;;;;;;5021416;28;19967;-57
2022/11/19 10:44:58;;;;;;;;;;;11.20;48.90;;;;;;5021885;28;19913;-58
2022/11/19 10:47:38;;;;;;;;;;;10.50;51.30;;;;;;5025029;28;19921;-58
2022/11/19 10:50:04;;;;;;;;;;;10.90;51.40;;;;;;5024018;28;19913;-57
2022/11/19 10:52:32;;;;;;;;;;;11.20;50.60;;;;;;5017502;28;20276;-57
2022/11/19 10:55:14;;;;;;;;;;;11.20;48.30;;;;;;5017903;28;19920;-57
2022/11/19 10:57:40;;;;;;;;;;;10.50;47.60;;;;;;5023964;28;19917;-57
2022/11/19 11:00:06;;;;;;;;;;;10.80;50.60;;;;;;5014423;28;19937;-57
2022/11/19 11:02:35;;;;;;;;;;;11.00;48.40;;;;;;5014406;28;19925;-58
2022/11/19 11:05:03;;;;;;;;;;;11.30;48.10;;;;;;5022256;28;20249;-56
2022/11/19 11:07:45;;;;;;;;;;;10.70;47.90;;;;;;5010659;28;19956;-57
2022/11/19 11:10:29;;;;;;;;;;;10.80;47.20;;;;;;5010585;28;19927;-58
2022/11/19 11:15:45;;;;;;;;;;;11.00;46.70;;;;;;5005583;28;20010;-57
2022/11/19 11:18:13;;;;;;;;;;;11.10;47.00;;;;;;5008310;28;19965;-58
2022/11/19 11:20:45;;;;;;;;;;;11.20;46.40;;;;;;5015027;28;19920;-59
2022/11/19 11:23:21;;;;;;;;;;;11.30;46.70;;;;;;5022455;28;19913;-58
2022/11/19 11:26:07;;;;;;;;;;;10.90;45.10;;;;;;5015740;28;19918;-54
2022/11/19 11:28:32;;;;;;;;;;;10.50;46.30;;;;;;5007636;28;19917;-59
2022/11/19 11:30:59;;;;;;;;;;;11.20;44.70;;;;;;5015751;28;19920;-56
2022/11/19 11:33:26;;;;;;;;;;;11.50;44.20;;;;;;5018282;28;19921;-59
2022/11/19 11:35:53;;;;;;;;;;;11.50;43.90;;;;;;5017201;28;20435;-58
2022/11/19 11:38:20;;;;;;;;;;;11.00;42.80;;;;;;5010553;28;20388;-59
2022/11/19 11:41:00;;;;;;;;;;;11.60;43.20;;;;;;5011761;28;19917;-57
2022/11/19 11:43:26;;;;;;;;;;;11.90;44.30;;;;;;5011759;28;19917;-56
2022/11/19 11:45:56;;;;;;;;;;;11.60;39.00;;;;;;5009388;28;19917;-56
2022/11/19 11:48:22;;;;;;;;;;;11.90;35.80;;;;;;5005129;28;20011;-55
2022/11/19 11:50:47;;;;;;;;;;;11.10;34.10;;;;;;5005732;28;20329;-60
2022/11/19 11:53:14;;;;;;;;;;;11.40;36.40;;;;;;5017813;28;20465;-57
2022/11/19 11:55:39;;;;;;;;;;;11.80;35.70;;;;;;5001326;28;19917;-57
2022/11/19 11:58:22;;;;;;;;;;;12.10;35.00;;;;;;5010847;28;20441;-51
2022/11/19 12:00:48;;;;;;;;;;;11.60;35.00;;;;;;5008608;28;19918;-60
2022/11/19 12:03:17;;;;;;;;;;;11.00;37.70;;;;;;5014262;28;19924;-58
2022/11/19 12:05:46;;;;;;;;;;;11.00;37.70;;;;;;5010177;28;20634;-58
2022/11/19 12:08:14;;;;;;;;;;;11.20;34.70;;;;;;5015479;28;19917;-58
2022/11/19 12:13:22;;;;;;;;;;;11.10;29.70;;;;;;5079316;27;19921;-56
2022/11/19 12:15:58;;;;;;;;;;;11.50;31.40;;;;;;5075670;28;19918;-58
2022/11/19 12:18:26;;;;;;;;;;;11.00;33.00;;;;;;5071315;28;19921;-58
2022/11/19 12:21:11;;;;;;;;;;;11.60;32.20;;;;;;5065584;28;20004;-59
2022/11/19 12:23:39;;;;;;;;;;;11.90;30.60;;;;;;5075246;28;20302;-58
2022/11/19 12:26:18;;;;;;;;;;;11.60;30.80;;;;;;5071414;28;19961;-58
2022/11/19 12:28:53;;;;;;;;;;;12.00;31.10;;;;;;5086086;28;19963;-57
2022/11/19 12:31:36;;;;;;;;;;;12.00;30.70;;;;;;5074484;28;19995;-58
2022/11/19 12:34:18;;;;;;;;;;;12.00;30.50;;;;;;5084516;28;19916;-58
2022/11/19 12:36:47;;;;;;;;;;;12.00;30.70;;;;;;5067097;28;20333;-59
2022/11/19 12:39:45;;;;;;;;;;;11.30;31.80;;;;;;5072776;28;19917;-58
2022/11/19 12:42:29;;;;;;;;;;;11.80;30.70;;;;;;5063743;28;19921;-60
2022/11/19 12:44:58;;;;;;;;;;;11.80;33.00;;;;;;5070780;28;19923;-59
2022/11/19 12:47:32;;;;;;;;;;;11.60;31.30;;;;;;5067552;28;20421;-59
2022/11/19 12:50:00;;;;;;;;;;;10.90;29.90;;;;;;5072732;28;20051;-57
2022/11/19 12:52:44;;;;;;;;;;;10.60;29.30;;;;;;5067179;28;19913;-59
2022/11/19 12:55:16;;;;;;;;;;;10.50;29.40;;;;;;5061377;28;19928;-60
2022/11/19 12:58:00;;;;;;;;;;;10.30;27.50;;;;;;5057899;28;20616;-59
2022/11/19 13:00:27;;;;;;;;;;;9.50;27.80;;;;;;5059469;28;20051;-58
2022/11/19 13:03:02;;;;;;;;;;;8.70;29.70;;;;;;5064967;28;20039;-58
2022/11/19 13:05:44;;;;;;;;;;;8.80;31.70;;;;;;5060360;28;20296;-59
2022/11/19 13:08:20;;;;;;;;;;;8.10;29.70;;;;;;5060408;28;19916;-59
2022/11/19 13:10:47;;;;;;;;;;;7.90;32.00;;;;;;5062032;28;19909;-58
2022/11/19 13:13:14;;;;;;;;;;;8.00;33.00;;;;;;5083882;28;19921;-60
2022/11/19 13:15:50;;;;;;;;;;;8.00;33.90;;;;;;5083660;28;19912;-59
2022/11/19 13:18:17;;;;;;;;;;;8.40;33.10;;;;;;5084338;28;20212;-58
2022/11/19 13:20:44;;;;;;;;;;;8.50;33.90;;;;;;5082092;28;20373;-58
2022/11/19 13:23:15;;;;;;;;;;;8.50;36.60;;;;;;5060208;28;19921;-58
2022/11/19 13:25:43;;;;;;;;;;;8.20;38.40;;;;;;5072009;28;20049;-57
2022/11/19 13:28:17;;;;;;;;;;;7.90;38.80;;;;;;5070989;28;19913;-57
2022/11/19 13:30:43;;;;;;;;;;;7.60;39.80;;;;;;5067961;28;19927;-60
2022/11/19 13:33:12;;;;;;;;;;;7.70;39.70;;;;;;5072570;28;20038;-58
2022/11/19 13:35:44;;;;;;;;;;;8.00;38.90;;;;;;5088417;28;20053;-55
2022/11/19 13:38:09;;;;;;;;;;;7.40;36.20;;;;;;5060113;28;19961;-58
2022/11/19 13:40:46;;;;;;;;;;;7.40;37.50;;;;;;5071157;28;20278;-54
2022/11/19 13:46:19;;;;;;;;;;;7.90;37.30;;;;;;5066244;28;19966;-57
2022/11/19 13:48:54;;;;;;;;;;;8.20;38.20;;;;;;5080202;28;19912;-57
2022/11/19 13:51:32;;;;;;;;;;;8.20;39.40;;;;;;5090056;28;19912;-56
2022/11/19 13:53:58;;;;;;;;;;;8.20;40.00;;;;;;5089632;28;19912;-57
2022/11/19 13:56:35;;;;;;;;;;;8.30;38.30;;;;;;5080979;28;19962;-52
2022/11/19 13:59:01;;;;;;;;;;;8.20;39.70;;;;;;5076524;28;20358;-56
2022/11/19 14:01:35;;;;;;;;;;;8.10;38.90;;;;;;5070878;28;19919;-55
2022/11/19 14:04:19;;;;;;;;;;;8.10;38.10;;;;;;5084210;28;19908;-58
2022/11/19 14:07:03;;;;;;;;;;;7.90;38.90;;;;;;5077859;28;19916;-55
2022/11/19 14:09:35;;;;;;;;;;;7.60;41.00;;;;;;5084281;28;19924;-58
2022/11/19 14:12:19;;;;;;;;;;;7.60;42.10;;;;;;5083587;28;20014;-59
2022/11/19 14:26:54;;;;;;;;;;;6.50;44.40;;;;;;5068928;28;20016;-54
2022/11/19 14:29:19;;;;;;;;;;;6.20;45.60;;;;;;5066897;28;19912;-53
2022/11/19 14:32:08;;;;;;;;;;;5.90;48.60;;;;;;5071224;28;19919;-55
2022/11/19 14:34:33;;;;;;;;;;;5.80;48.90;;;;;;5081410;28;19912;-50
2022/11/19 14:37:09;;;;;;;;;;;5.50;51.30;;;;;;5075098;28;19917;-57
2022/11/19 14:39:39;;;;;;;;;;;5.10;51.70;;;;;;5070128;28;19916;-56
2022/11/19 14:42:13;;;;;;;;;;;5.00;52.50;;;;;;5069964;28;19917;-58
2022/11/19 14:44:39;;;;;;;;;;;4.80;53.60;;;;;;5070913;28;20050;-53
2022/11/19 14:47:16;;;;;;;;;;;4.60;55.30;;;;;;5064120;28;20050;-54
2022/11/19 14:49:45;;;;;;;;;;;4.30;58.20;;;;;;5071365;28;19916;-55
2022/11/19 14:52:34;;;;;;;;;;;4.00;60.70;;;;;;5063614;28;19920;-53
2022/11/19 14:54:59;;;;;;;;;;;3.80;61.10;;;;;;5075617;28;20435;-54
2022/11/19 14:57:25;;;;;;;;;;;3.60;63.60;;;;;;5065227;28;20008;-57
2022/11/19 14:59:52;;;;;;;;;;;3.30;68.60;;;;;;5059878;28;19941;-55
2022/11/19 15:02:25;;;;;;;;;;;3.10;73.20;;;;;;5072137;28;20356;-55
2022/11/19 15:04:56;;;;;;;;;;;2.80;78.00;;;;;;5063344;28;20329;-51
2022/11/19 15:07:39;;;;;;;;;;;2.50;82.20;;;;;;5061974;28;20030;-56